createdAt,value
2022-12-17T06:45:41.201Z,0.857143
2022-12-17T06:46:41.298Z,0.857143
2022-12-17T06:47:41.245Z,0.857143
2022-12-17T06:48:41.265Z,1.71429
2022-12-17T06:49:41.292Z,1.71429
2022-12-17T06:50:41.341Z,2.5
2022-12-17T06:51:41.366Z,2.5
2022-12-17T06:52:41.391Z,3.35714
2022-12-17T06:53:41.430Z,4.21429
2022-12-17T06:54:41.459Z,4.21429
2022-12-17T06:55:41.495Z,5
2022-12-17T06:56:41.539Z,6.71429
2022-12-17T06:57:45.119Z,7.5
2022-12-17T06:58:41.599Z,8.35714
2022-12-17T06:59:41.624Z,10
2022-12-17T07:00:41.690Z,10.8571
2022-12-17T07:01:41.944Z,11.7143
2022-12-17T07:02:41.805Z,14.2143
2022-12-17T07:03:41.744Z,15.8571
2022-12-17T07:04:41.774Z,17.5
2022-12-17T07:05:41.812Z,20
2022-12-17T07:06:41.852Z,20.8571
2022-12-17T07:07:41.873Z,21.7143
2022-12-17T07:08:41.903Z,24.2143
2022-12-17T07:09:41.932Z,25.8571
2022-12-17T07:10:41.967Z,28.3571
2022-12-17T07:11:42.029Z,30.8571
2022-12-17T07:12:42.025Z,33.3571
2022-12-17T07:13:42.056Z,36.7143
2022-12-17T07:14:42.087Z,41.7143
2022-12-17T07:15:42.119Z,46.7143
2022-12-17T07:16:42.203Z,53.3571
2022-12-17T07:17:42.177Z,54.2143
2022-12-17T07:18:42.212Z,57.5
2022-12-17T07:19:42.250Z,60
2022-12-17T07:20:42.271Z,60.8571
2022-12-17T07:21:42.294Z,61.7143
2022-12-17T07:22:42.334Z,64.2143
2022-12-17T07:23:42.364Z,68.3571
2022-12-17T07:24:42.399Z,71.7143
2022-12-17T07:25:46.021Z,76.7143
2022-12-17T07:26:42.461Z,83.3571
2022-12-17T07:27:42.500Z,86.7143
2022-12-17T07:28:42.535Z,87.5
2022-12-17T07:29:42.552Z,90.8571
2022-12-17T07:30:42.587Z,96.7143
2022-12-17T07:31:42.708Z,104.214
2022-12-17T07:32:42.651Z,112.5
2022-12-17T07:33:42.675Z,115.857
2022-12-17T07:34:42.708Z,116.714
2022-12-17T07:35:42.727Z,118.357
2022-12-17T07:36:42.775Z,121.714
2022-12-17T07:37:42.805Z,130.857
2022-12-17T07:38:42.826Z,137.5
2022-12-17T07:39:42.861Z,142.5
2022-12-17T07:40:42.889Z,140.857
2022-12-17T07:41:42.930Z,142.5
2022-12-17T07:42:42.950Z,150.857
2022-12-17T07:43:45.921Z,163.357
2022-12-17T07:44:43.021Z,175
2022-12-17T07:45:43.110Z,175.857
2022-12-17T07:46:43.094Z,180.857
2022-12-17T07:47:43.102Z,189.214
2022-12-17T07:48:43.132Z,191.714
2022-12-17T07:49:43.163Z,195.857
2022-12-17T07:50:43.200Z,204.214
2022-12-17T07:51:43.224Z,208.357
2022-12-17T07:52:43.257Z,215.857
2022-12-17T07:53:43.290Z,218.357
2022-12-17T07:54:43.327Z,213.357
2022-12-17T07:55:43.355Z,211.714
2022-12-17T07:56:43.394Z,221.714
2022-12-17T07:57:43.437Z,230
2022-12-17T07:58:43.449Z,226.714
2022-12-17T07:59:43.493Z,225
2022-12-17T08:00:48.979Z,232.5
2022-12-17T08:01:43.730Z,242.5
2022-12-17T08:02:43.651Z,250
2022-12-17T08:03:43.711Z,255.857
2022-12-17T08:04:43.651Z,258.357
2022-12-17T08:05:43.683Z,260.857
2022-12-17T08:06:43.758Z,260
2022-12-17T08:07:43.747Z,266.714
2022-12-17T08:08:43.777Z,278.357
2022-12-17T08:09:43.807Z,284.214
2022-12-17T08:10:43.833Z,282.5
2022-12-17T08:11:43.892Z,290
2022-12-17T08:12:43.887Z,314.214
2022-12-17T08:13:43.922Z,344.214
2022-12-17T08:14:43.946Z,346.714
2022-12-17T08:15:43.970Z,335
2022-12-17T08:16:44.063Z,330
2022-12-17T08:17:44.037Z,336.714
2022-12-17T08:18:44.097Z,360
2022-12-17T08:19:44.089Z,394.214
2022-12-17T08:20:44.120Z,405.857
2022-12-17T08:21:44.152Z,393.357
2022-12-17T08:22:44.188Z,385.857
2022-12-17T08:23:44.250Z,399.214
2022-12-17T08:24:44.252Z,413.357
2022-12-17T08:25:44.282Z,405.857
2022-12-17T08:26:47.539Z,409.214
2022-12-17T08:27:44.347Z,458.357
2022-12-17T08:28:50.668Z,494.214
2022-12-17T08:29:44.413Z,483.357
2022-12-17T08:30:44.460Z,485
2022-12-17T08:31:44.493Z,505
2022-12-17T08:32:44.511Z,515.857
2022-12-17T08:33:44.537Z,528.357
2022-12-17T08:34:44.558Z,520
2022-12-17T08:35:44.597Z,519.214
2022-12-17T08:36:44.622Z,536.714
2022-12-17T08:37:44.656Z,546.714
2022-12-17T08:38:44.680Z,545.857
2022-12-17T08:39:44.714Z,534.214
2022-12-17T08:40:44.762Z,527.5
2022-12-17T08:41:46.613Z,525.857
2022-12-17T08:42:44.790Z,518.357
2022-12-17T08:43:44.835Z,530.857
2022-12-17T08:44:44.858Z,572.5
2022-12-17T08:45:44.931Z,595
2022-12-17T08:46:44.924Z,587.5
2022-12-17T08:47:45.003Z,562.5
2022-12-17T08:48:44.995Z,548.357
2022-12-17T08:49:45.033Z,547.5
2022-12-17T08:50:45.062Z,565.857
2022-12-17T08:51:45.079Z,594.214
2022-12-17T08:52:45.117Z,618.357
2022-12-17T08:53:45.155Z,615
2022-12-17T08:54:45.185Z,590.857
2022-12-17T08:55:45.220Z,571.714
2022-12-17T08:56:45.260Z,605
2022-12-17T08:57:45.284Z,644.214
2022-12-17T08:58:45.328Z,628.357
2022-12-17T08:59:45.380Z,606.714
2022-12-17T09:00:45.375Z,625.857
2022-12-17T09:01:45.551Z,638.357
2022-12-17T09:02:45.541Z,623.357
2022-12-17T09:03:45.542Z,649.214
2022-12-17T09:04:45.498Z,660.857
2022-12-17T09:05:45.530Z,615.857
2022-12-17T09:06:45.553Z,591.714
2022-12-17T09:07:45.574Z,640
2022-12-17T09:08:45.605Z,690.857
2022-12-17T09:09:45.645Z,696.714
2022-12-17T09:10:45.678Z,706.714
2022-12-17T09:11:45.710Z,796.714
2022-12-17T09:12:45.739Z,868.357
2022-12-17T09:13:45.789Z,848.357
2022-12-17T09:14:45.811Z,831.714
2022-12-17T09:15:45.849Z,850
2022-12-17T09:16:45.922Z,887.5
2022-12-17T09:17:45.903Z,895.857
2022-12-17T09:18:45.937Z,914.214
2022-12-17T09:19:45.985Z,853.357
2022-12-17T09:20:46.011Z,847.5
2022-12-17T09:21:46.081Z,820
2022-12-17T09:22:46.066Z,790.857
2022-12-17T09:23:46.112Z,851.714
2022-12-17T09:24:46.133Z,835
2022-12-17T09:25:46.155Z,773.357
2022-12-17T09:26:46.221Z,760
2022-12-17T09:27:46.259Z,802.5
2022-12-17T09:28:46.258Z,780.857
2022-12-17T09:29:46.293Z,770.857
2022-12-17T09:30:46.377Z,809.214
2022-12-17T09:31:46.356Z,830.857
2022-12-17T09:32:46.415Z,846.714
2022-12-17T09:33:46.446Z,860.857
2022-12-17T09:34:46.453Z,863.357
2022-12-17T09:35:46.486Z,811.714
2022-12-17T09:36:51.046Z,712.5
2022-12-17T09:37:46.537Z,700.857
2022-12-17T09:38:46.610Z,737.5
2022-12-17T09:39:46.651Z,779.214
2022-12-17T09:40:46.646Z,805.857
2022-12-17T09:41:46.672Z,825.857
2022-12-17T09:42:50.951Z,817.5
2022-12-17T09:43:46.738Z,842.5
2022-12-17T09:44:46.781Z,876.714
2022-12-17T09:45:46.855Z,924.214
2022-12-17T09:46:46.825Z,943.357
2022-12-17T09:47:46.851Z,955.857
2022-12-17T09:48:46.894Z,965.857
2022-12-17T09:49:46.924Z,1020.86
2022-12-17T09:50:46.969Z,1018.36
2022-12-17T09:51:46.983Z,1002.5
2022-12-17T09:52:47.023Z,979.214
2022-12-17T09:53:47.051Z,1047.5
2022-12-17T09:54:47.077Z,1150.86
2022-12-17T09:55:47.126Z,1133.36
2022-12-17T09:56:47.173Z,1078.36
2022-12-17T09:57:47.187Z,995
2022-12-17T09:58:47.216Z,988.357
2022-12-17T09:59:47.241Z,951.714
2022-12-17T10:00:47.274Z,974.214
2022-12-17T10:01:47.405Z,941.714
2022-12-17T10:02:47.576Z,912.5
2022-12-17T10:03:47.424Z,925.857
2022-12-17T10:04:47.410Z,951.714
2022-12-17T10:05:47.434Z,946.714
2022-12-17T10:06:47.477Z,976.714
2022-12-17T10:07:47.505Z,980
2022-12-17T10:08:47.589Z,950
2022-12-17T10:09:47.564Z,978.357
2022-12-17T10:10:47.592Z,1013.36
2022-12-17T10:11:47.617Z,1035
2022-12-17T10:12:47.653Z,1045
2022-12-17T10:13:47.702Z,1110.86
2022-12-17T10:14:47.715Z,1077.5
2022-12-17T10:15:47.783Z,1084.21
2022-12-17T10:16:47.787Z,1120
2022-12-17T10:17:47.817Z,1072.5
2022-12-17T10:18:47.843Z,1019.21
2022-12-17T10:19:47.916Z,1035
2022-12-17T10:20:47.904Z,1034.21
2022-12-17T10:21:47.946Z,1000
2022-12-17T10:22:47.979Z,1080.86
2022-12-17T10:23:48.010Z,1205.86
2022-12-17T10:24:48.056Z,1242.5
2022-12-17T10:25:48.064Z,1184.21
2022-12-17T10:26:48.103Z,1202.5
2022-12-17T10:27:48.137Z,1157.5
2022-12-17T10:28:48.162Z,1130.86
2022-12-17T10:29:48.635Z,1111.71
2022-12-17T10:30:48.284Z,1138.36
2022-12-17T10:31:48.255Z,1123.36
2022-12-17T10:32:48.290Z,1124.21
2022-12-17T10:33:48.315Z,1055
2022-12-17T10:34:48.345Z,1061.71
2022-12-17T10:35:48.388Z,1075
2022-12-17T10:36:48.425Z,1137.5
2022-12-17T10:37:48.445Z,1121.71
2022-12-17T10:38:48.491Z,1095.86
2022-12-17T10:39:48.527Z,1016.71
2022-12-17T10:40:48.547Z,1020
2022-12-17T10:41:48.616Z,1017.5
2022-12-17T10:42:48.620Z,983.357
2022-12-17T10:43:48.653Z,992.5
2022-12-17T10:44:48.675Z,1005.86
2022-12-17T10:45:48.717Z,930
2022-12-17T10:46:48.811Z,931.714
2022-12-17T10:47:48.811Z,912.5
2022-12-17T10:48:48.816Z,887.5
2022-12-17T10:49:48.840Z,879.214
2022-12-17T10:50:48.879Z,891.714
2022-12-17T10:51:48.905Z,909.214
2022-12-17T10:52:48.939Z,934.214
2022-12-17T10:53:48.961Z,987.5
2022-12-17T10:54:49.855Z,1013.36
2022-12-17T10:55:49.031Z,1008.36
2022-12-17T10:56:49.056Z,1027.5
2022-12-17T10:57:49.087Z,1007.5
2022-12-17T10:58:49.129Z,945.857
2022-12-17T10:59:49.203Z,935
2022-12-17T11:00:50.073Z,949.214
2022-12-17T11:01:49.302Z,967.5
2022-12-17T11:02:49.493Z,965.857
2022-12-17T11:03:49.348Z,970
2022-12-17T11:04:49.405Z,973.357
2022-12-17T11:05:49.345Z,1001.71
2022-12-17T11:06:49.394Z,1016.71
2022-12-17T11:07:49.417Z,1029.21
2022-12-17T11:08:49.442Z,1029.21
2022-12-17T11:09:49.470Z,1020.86
2022-12-17T11:10:49.528Z,1005
2022-12-17T11:11:49.545Z,1009.21
2022-12-17T11:12:49.562Z,1028.36
2022-12-17T11:13:49.598Z,1036.71
2022-12-17T11:14:49.633Z,1004.21
2022-12-17T11:15:49.750Z,937.5
2022-12-17T11:16:49.696Z,888.357
2022-12-17T11:17:49.759Z,912.5
2022-12-17T11:18:49.750Z,914.214
2022-12-17T11:19:49.778Z,925.857
2022-12-17T11:20:49.819Z,949.214
2022-12-17T11:21:49.849Z,977.5
2022-12-17T11:22:49.895Z,995.857
2022-12-17T11:23:49.906Z,985.857
2022-12-17T11:24:49.941Z,956.714
2022-12-17T11:25:49.962Z,1011.71
2022-12-17T11:26:50.014Z,980.857
2022-12-17T11:27:50.046Z,928.357
2022-12-17T11:28:50.071Z,909.214
2022-12-17T11:29:50.127Z,903.357
2022-12-17T11:30:50.185Z,912.5
2022-12-17T11:31:50.174Z,892.5
2022-12-17T11:32:50.203Z,895
2022-12-17T11:33:50.236Z,891.714
2022-12-17T11:34:50.275Z,883.357
2022-12-17T11:35:50.296Z,870
2022-12-17T11:36:50.319Z,855.857
2022-12-17T11:37:50.362Z,811.714
2022-12-17T11:38:50.385Z,795
2022-12-17T11:39:50.418Z,771.714
2022-12-17T11:40:50.444Z,755.857
2022-12-17T11:41:50.487Z,770.857
2022-12-17T11:42:50.519Z,780.857
2022-12-17T11:43:50.554Z,823.357
2022-12-17T11:44:50.575Z,835
2022-12-17T11:45:50.599Z,808.357
2022-12-17T11:46:50.744Z,810
2022-12-17T11:47:53.629Z,829.214
2022-12-17T11:48:50.696Z,804.214
2022-12-17T11:49:50.733Z,815
2022-12-17T11:50:50.768Z,873.357
2022-12-17T11:51:50.812Z,856.714
2022-12-17T11:52:50.863Z,847.5
2022-12-17T11:53:50.849Z,855
2022-12-17T11:54:50.886Z,865.857
2022-12-17T11:55:50.912Z,873.357
2022-12-17T11:56:50.938Z,906.714
2022-12-17T11:57:50.973Z,860.857
2022-12-17T11:58:51.009Z,831.714
2022-12-17T11:59:54.037Z,804.214
2022-12-17T12:00:51.074Z,802.5
2022-12-17T12:01:51.148Z,824.214
2022-12-17T12:02:51.375Z,823.357
2022-12-17T12:03:51.230Z,812.5
2022-12-17T12:04:51.198Z,762.5
2022-12-17T12:05:56.512Z,768.357
2022-12-17T12:06:51.276Z,776.714
2022-12-17T12:07:51.303Z,778.357
2022-12-17T12:08:51.316Z,784.214
2022-12-17T12:09:51.354Z,769.214
2022-12-17T12:10:51.375Z,760.857
2022-12-17T12:11:51.442Z,795.857
2022-12-17T12:12:51.427Z,772.5
2022-12-17T12:13:51.463Z,788.357
2022-12-17T12:14:51.499Z,788.357
2022-12-17T12:15:51.661Z,827.5
2022-12-17T12:16:51.647Z,803.357
2022-12-17T12:17:51.589Z,785.857
2022-12-17T12:18:51.657Z,775.857
2022-12-17T12:19:51.649Z,770
2022-12-17T12:20:51.676Z,815
2022-12-17T12:21:51.713Z,845.857
2022-12-17T12:22:51.743Z,839.214
2022-12-17T12:23:51.789Z,808.357
2022-12-17T12:24:51.799Z,846.714
2022-12-17T12:25:51.829Z,860.857
2022-12-17T12:26:51.865Z,789.214
2022-12-17T12:27:51.894Z,779.214
2022-12-17T12:28:51.918Z,801.714
2022-12-17T12:29:51.976Z,765
2022-12-17T12:30:51.973Z,774.214
2022-12-17T12:31:52.031Z,746.714
2022-12-17T12:32:52.043Z,728.357
2022-12-17T12:33:52.077Z,726.714
2022-12-17T12:34:52.104Z,705
2022-12-17T12:35:52.140Z,699.214
2022-12-17T12:36:52.162Z,680.857
2022-12-17T12:37:52.186Z,694.214
2022-12-17T12:38:52.211Z,703.357
2022-12-17T12:39:52.251Z,705.857
2022-12-17T12:40:52.282Z,714.214
2022-12-17T12:41:52.314Z,733.357
2022-12-17T12:42:52.348Z,732.5
2022-12-17T12:43:52.363Z,739.214
2022-12-17T12:44:52.401Z,746.714
2022-12-17T12:45:52.511Z,755
2022-12-17T12:46:52.472Z,739.214
2022-12-17T12:47:52.497Z,747.5
2022-12-17T12:48:52.536Z,750.857
2022-12-17T12:49:52.559Z,706.714
2022-12-17T12:50:52.602Z,701.714
2022-12-17T12:51:57.648Z,705.857
2022-12-17T12:52:52.654Z,704.214
2022-12-17T12:53:52.684Z,690
2022-12-17T12:54:52.718Z,655
2022-12-17T12:55:52.763Z,628.357
2022-12-17T12:56:52.776Z,605.857
2022-12-17T12:57:52.823Z,596.714
2022-12-17T12:58:52.846Z,609.214
2022-12-17T12:59:52.891Z,604.214
2022-12-17T13:00:53.019Z,602.5
2022-12-17T13:01:53.205Z,617.5
2022-12-17T13:02:53.172Z,640.857
2022-12-17T13:03:53.008Z,658.357
2022-12-17T13:04:53.029Z,640.857
2022-12-17T13:05:53.067Z,618.357
2022-12-17T13:06:53.098Z,607.5
2022-12-17T13:07:53.140Z,605.857
2022-12-17T13:08:53.152Z,600.857
2022-12-17T13:09:53.222Z,586.714
2022-12-17T13:10:53.226Z,564.214
2022-12-17T13:11:53.260Z,534.214
2022-12-17T13:12:53.282Z,522.5
2022-12-17T13:13:53.310Z,519.214
2022-12-17T13:14:53.363Z,520.857
2022-12-17T13:15:53.375Z,505.857
2022-12-17T13:16:53.473Z,490.857
2022-12-17T13:17:53.433Z,470
2022-12-17T13:18:53.473Z,466.714
2022-12-17T13:19:53.508Z,463.357
2022-12-17T13:20:53.519Z,448.357
2022-12-17T13:21:53.557Z,434.214
2022-12-17T13:22:53.583Z,429.214
2022-12-17T13:23:53.630Z,433.357
2022-12-17T13:24:53.658Z,427.5
2022-12-17T13:25:53.681Z,426.714
2022-12-17T13:26:53.722Z,415
2022-12-17T13:27:53.732Z,417.5
2022-12-17T13:28:53.799Z,423.357
2022-12-17T13:29:53.799Z,420.857
2022-12-17T13:30:53.834Z,417.5
2022-12-17T13:31:53.971Z,420.857
2022-12-17T13:32:53.899Z,415
2022-12-17T13:33:53.921Z,420
2022-12-17T13:34:53.955Z,400
2022-12-17T13:35:53.985Z,392.5
2022-12-17T13:36:54.018Z,394.214
2022-12-17T13:37:54.050Z,382.5
2022-12-17T13:38:54.155Z,373.357
2022-12-17T13:39:54.111Z,365
2022-12-17T13:40:54.151Z,365
2022-12-17T13:41:54.187Z,368.357
2022-12-17T13:42:54.221Z,361.714
2022-12-17T13:43:54.272Z,367.5
2022-12-17T13:44:54.288Z,366.714
2022-12-17T13:45:54.385Z,377.5
2022-12-17T13:46:54.345Z,365
2022-12-17T13:47:54.389Z,347.5
2022-12-17T13:48:54.422Z,342.5
2022-12-17T13:50:10.259Z,329.214
2022-12-17T13:50:54.478Z,317.5
2022-12-17T13:51:54.527Z,316.714
2022-12-17T13:52:54.544Z,305.857
2022-12-17T13:53:54.573Z,302.5
2022-12-17T13:54:54.620Z,287.5
2022-12-17T13:55:54.640Z,280.857
2022-12-17T13:56:54.679Z,270
2022-12-17T13:57:54.711Z,268.357
2022-12-17T13:58:54.753Z,260
2022-12-17T13:59:54.776Z,252.5
2022-12-17T14:00:54.864Z,245.857
2022-12-17T14:01:54.954Z,245.857
2022-12-17T14:02:54.963Z,244.214
2022-12-17T14:04:06.283Z,236.714
2022-12-17T14:04:54.944Z,244.214
2022-12-17T14:05:54.974Z,233.357
2022-12-17T14:06:55.014Z,221.714
2022-12-17T14:07:55.043Z,210.857
2022-12-17T14:08:55.105Z,202.5
2022-12-17T14:09:55.104Z,197.5
2022-12-17T14:10:55.138Z,199.214
2022-12-17T14:11:55.208Z,200.857
2022-12-17T14:12:55.205Z,193.357
2022-12-17T14:13:55.223Z,188.357
2022-12-17T14:14:55.254Z,184.214
2022-12-17T14:15:55.293Z,179.214
2022-12-17T14:16:55.423Z,173.357
2022-12-17T14:17:55.362Z,168.357
2022-12-17T14:18:57.257Z,165
2022-12-17T14:19:55.444Z,161.714
2022-12-17T14:20:55.434Z,157.5
2022-12-17T14:21:55.472Z,152.5
2022-12-17T14:22:55.497Z,143.357
2022-12-17T14:23:55.528Z,139.214
2022-12-17T14:24:55.574Z,137.5
2022-12-17T14:25:55.589Z,135.857
2022-12-17T14:26:55.621Z,130.857
2022-12-17T14:27:55.661Z,124.214
2022-12-17T14:28:55.683Z,116.714
2022-12-17T14:29:56.879Z,111.714
2022-12-17T14:31:25.394Z,109.214
2022-12-17T14:31:55.810Z,102.5
2022-12-17T14:32:55.808Z,98.3571
2022-12-17T14:33:55.843Z,95
2022-12-17T14:35:00.221Z,93.3571
2022-12-17T14:35:55.896Z,88.3571
2022-12-17T14:36:55.936Z,84.2143
2022-12-17T14:37:55.956Z,80.8571
2022-12-17T14:38:57.555Z,79.2143
2022-12-17T14:39:56.019Z,76.7143
2022-12-17T14:40:56.038Z,73.3571
2022-12-17T14:41:56.064Z,70
2022-12-17T14:42:56.094Z,65.8571
2022-12-17T14:43:56.123Z,62.5
2022-12-17T14:44:56.156Z,57.5
2022-12-17T14:45:56.274Z,54.2143
2022-12-17T14:46:56.244Z,50.8571
2022-12-17T14:47:56.268Z,47.5
2022-12-17T14:48:56.292Z,44.2143
2022-12-17T14:49:56.338Z,41.7143
2022-12-17T14:50:56.346Z,38.3571
2022-12-17T14:51:56.377Z,35.8571
2022-12-17T14:52:57.578Z,33.3571
2022-12-17T14:53:56.441Z,30
2022-12-17T14:54:56.464Z,28.3571
2022-12-17T14:55:56.500Z,27.5
2022-12-17T14:56:56.538Z,25.8571
2022-12-17T14:57:56.599Z,23.3571
2022-12-17T14:58:56.596Z,21.7143
2022-12-17T14:59:56.640Z,19.2143
2022-12-17T15:00:56.843Z,17.5
2022-12-17T15:01:56.823Z,15.8571
2022-12-17T15:02:56.925Z,14.2143
2022-12-17T15:03:56.840Z,12.5
2022-12-17T15:04:56.813Z,11.7143
2022-12-17T15:05:56.839Z,10.8571
2022-12-17T15:06:56.873Z,9.21429
2022-12-17T15:07:56.899Z,7.5
2022-12-17T15:08:56.926Z,6.71429
2022-12-17T15:09:56.967Z,5.85714
2022-12-17T15:10:56.999Z,5
2022-12-17T15:11:57.053Z,4.21429
2022-12-17T15:12:57.073Z,3.35714
2022-12-17T15:13:57.117Z,2.5
2022-12-17T15:14:57.141Z,2.5
2022-12-17T15:15:57.421Z,1.71429
2022-12-17T15:16:57.276Z,1.71429
2022-12-17T15:17:57.249Z,1.71429
2022-12-17T15:18:57.269Z,0.857143
2022-12-17T15:19:57.295Z,0.857143
2022-12-17T15:20:57.328Z,0.857143
